Latest Weather Observations for Ceduna

IDS60801

Issued at 7:31 pm CDT Saturday 6 February 2016 (issued every 30 minutes, with the page automatically refreshed every 10 minutes)

About weather observations | Map of weather stations | Latest weather observations for SA | Other Formats
Station Details ID: 018012 Name: CEDUNA AMO Lat: -32.13 Lon: 133.70 Height: 15.3 m
Data from the previous 72 hours. | See also: Recent months at Ceduna
Date/Time
CDT
Temp
°C
App
Temp
°C
Dew
Point
Rel
Hum
%
Delta-T
°C
Wind Press
QNH
hPa
Press
MSL
hPa
Rain
since 9 am
mm
Dir
 
Spd
km/h
Gust
km/h
Spd
kts
Gust
kts
06/07:30pm 19.5 16.1 15.8 79 2.2 S 28 37 15 20 1015.7 1015.6 -
06/07:00pm 20.0 16.2 15.8 77 2.5 S 30 39 16 21 1015.5 1015.4 0.0
06/06:30pm 20.9 17.3 16.3 75 2.8 S 30 41 16 22 1015.6 1015.5 0.0
06/06:00pm 20.7 16.5 15.7 73 3.0 S 32 41 17 22 1015.3 1015.2 0.0
06/05:30pm 20.9 16.7 15.7 72 3.1 S 32 39 17 21 1015.2 1015.1 0.0
06/05:00pm 21.2 17.6 15.3 69 3.5 S 28 35 15 19 1015.2 1015.1 0.0
06/04:30pm 21.7 17.6 16.0 70 3.4 S 32 41 17 22 1015.1 1015.0 0.0
06/04:00pm 21.9 17.6 15.5 67 3.8 S 32 41 17 22 1015.2 1015.1 0.0
06/03:30pm 21.5 17.1 15.1 67 3.8 S 32 39 17 21 1015.4 1015.3 0.0
06/03:00pm 21.6 17.8 15.7 69 3.5 SSW 30 37 16 20 1015.6 1015.5 0.0
06/02:30pm 21.1 17.2 15.4 70 3.4 SSW 30 35 16 19 1015.9 1015.8 0.0
06/02:00pm 21.2 17.1 16.0 72 3.1 SSW 32 39 17 21 1015.9 1015.8 0.0
06/01:30pm 21.5 17.7 15.8 70 3.4 SSW 30 37 16 20 1016.2 1016.1 0.0
06/01:00pm 21.9 19.2 15.7 68 3.7 S 24 32 13 17 1016.4 1016.3 0.0
06/12:30pm 20.5 18.1 15.3 72 3.1 SSW 22 30 12 16 1016.4 1016.3 0.0
06/12:00pm 20.3 18.1 15.9 76 2.6 SSW 22 33 12 18 1016.5 1016.4 0.0
06/11:30am 20.5 18.6 15.7 74 2.9 S 20 28 11 15 1016.6 1016.5 0.0
06/11:00am 21.1 19.1 15.6 71 3.3 S 20 26 11 14 1016.6 1016.5 0.0
06/10:30am 20.8 19.0 16.0 74 2.9 S 20 28 11 15 1016.6 1016.5 0.0
06/10:00am 20.1 18.3 15.9 77 2.5 SSE 20 28 11 15 1016.6 1016.5 0.0
06/09:55am 20.2 18.2 15.6 75 2.7 SE 20 28 11 15 1016.6 1016.5 0.0
06/09:30am 19.7 18.2 16.2 80 2.1 SE 19 24 10 13 1016.5 1016.4 0.0
06/09:11am 18.7 17.2 15.4 81 1.9 SE 17 22 9 12 1016.4 1016.3 0.0
06/09:04am 18.4 17.0 15.5 83 1.7 SE 17 24 9 13 1016.4 1016.3 0.0
06/09:00am 18.1 16.4 15.7 86 1.4 SE 19 24 10 13 1016.4 1016.3 0.0
06/08:30am 17.9 16.1 15.5 86 1.4 SE 19 28 10 15 1016.1 1016.0 0.0
06/08:00am 17.0 15.1 15.3 90 1.0 SE 19 26 10 14 1015.9 1015.8 0.0
06/07:30am 16.7 14.6 15.2 91 0.9 SSE 20 28 11 15 1015.7 1015.6 0.0
06/07:00am 16.4 15.3 15.4 94 0.6 SSE 15 20 8 11 1015.5 1015.4 0.0
06/06:30am 16.2 14.7 15.4 95 0.5 SSE 17 22 9 12 1015.1 1015.0 0.0
06/06:25am 16.1 14.6 15.3 95 0.5 SSE 17 22 9 12 1015.1 1015.0 0.0
06/06:00am 15.0 14.0 14.7 98 0.2 S 13 17 7 9 1014.7 1014.6 0.0
06/05:30am 12.6 11.9 12.1 97 0.3 SSE 7 9 4 5 1014.7 1014.6 0.0
06/05:00am 12.1 10.5 11.5 96 0.3 SE 11 11 6 6 1014.5 1014.4 0.0
06/04:30am 13.5 12.0 13.0 97 0.3 SE 13 15 7 8 1014.6 1014.5 0.0
06/04:00am 13.8 13.1 13.2 96 0.3 SSE 9 11 5 6 1014.7 1014.6 0.0
06/03:30am 14.6 13.3 13.8 95 0.4 SE 13 17 7 9 1014.6 1014.5 0.0
06/03:00am 15.2 13.3 14.2 94 0.6 ESE 17 20 9 11 1014.6 1014.5 0.0
06/02:30am 15.7 14.6 14.4 92 0.7 SE 13 15 7 8 1015.0 1014.9 0.0
06/02:00am 16.3 14.7 15.0 92 0.8 SSE 17 20 9 11 1015.4 1015.3 0.0
06/01:30am 16.7 14.8 15.2 91 0.9 SSE 19 26 10 14 1015.6 1015.5 0.0
06/01:00am 17.1 14.7 15.4 90 1.0 SSE 22 32 12 17 1015.9 1015.8 0.0
06/12:30am 17.5 14.4 15.5 88 1.2 SSE 26 33 14 18 1016.2 1016.1 0.0
06/12:00am 17.6 14.8 15.4 87 1.3 SSE 24 35 13 19 1016.4 1016.3 0.0
 
Date/Time
CDT
Temp
°C
App
Temp
°C
Dew
Point
Rel
Hum
%
Delta-T
°C
Wind Press
QNH
hPa
Press
MSL
hPa
Rain
since 9 am
mm
Dir
 
Spd
km/h
Gust
km/h
Spd
kts
Gust
kts
05/11:30pm 17.7 15.3 15.5 87 1.3 SSE 22 32 12 17 1016.5 1016.4 0.0
05/11:00pm 17.7 15.3 15.3 86 1.4 SSE 22 32 12 17 1016.5 1016.4 0.0
05/10:30pm 17.9 14.7 15.3 85 1.5 SSE 26 37 14 20 1016.4 1016.3 0.0
05/10:00pm 18.0 14.1 15.4 85 1.5 S 30 39 16 21 1016.3 1016.2 0.0
05/09:30pm 18.0 14.8 15.3 84 1.6 S 26 37 14 20 1016.2 1016.1 0.0
05/09:00pm 18.2 14.6 15.3 83 1.7 S 28 39 15 21 1015.8 1015.7 0.0
05/08:30pm 18.5 14.5 15.2 81 1.9 S 30 39 16 21 1015.8 1015.7 0.0
05/08:00pm 19.2 15.3 15.5 79 2.2 S 30 39 16 21 1015.6 1015.5 0.0
05/07:30pm 19.6 14.6 15.0 75 2.7 S 35 46 19 25 1015.2 1015.1 0.0
05/07:00pm 20.4 15.1 15.4 73 3.0 S 37 48 20 26 1015.1 1015.0 0.0
05/06:30pm 20.7 15.4 15.3 71 3.2 S 37 50 20 27 1014.9 1014.8 0.0
05/06:00pm 21.1 16.2 15.2 69 3.5 S 35 48 19 26 1014.9 1014.8 0.0
05/05:30pm 22.1 17.3 15.7 67 3.8 S 35 46 19 25 1015.0 1014.9 0.0
05/05:00pm 21.5 16.8 14.9 66 3.9 S 33 44 18 24 1015.2 1015.1 0.0
05/04:30pm 21.1 16.3 14.5 66 3.9 SSW 33 43 18 23 1015.5 1015.4 0.0
05/04:00pm 21.7 17.0 14.8 65 4.1 SSW 33 44 18 24 1015.8 1015.7 0.0
05/03:30pm 22.4 17.8 15.0 63 4.4 S 33 43 18 23 1016.1 1016.0 0.0
05/03:00pm 21.5 16.6 14.4 64 4.1 S 33 43 18 23 1016.3 1016.2 0.0
05/02:30pm 22.6 18.2 15.2 63 4.4 SSW 32 43 17 23 1016.7 1016.6 0.0
05/02:00pm 21.6 16.7 14.3 63 4.3 S 33 44 18 24 1017.0 1016.9 0.0
05/01:30pm 22.4 17.9 14.8 62 4.5 S 32 43 17 23 1017.3 1017.2 0.0
05/01:00pm 21.8 18.0 14.7 64 4.2 S 28 37 15 20 1017.5 1017.4 0.0
05/12:30pm 22.1 18.1 14.2 61 4.6 S 28 33 15 18 1017.8 1017.7 0.0
05/12:00pm 22.2 18.7 13.5 57 5.0 SSE 24 35 13 19 1018.0 1017.9 0.0
05/11:30am 21.5 17.9 14.2 63 4.2 SSE 26 35 14 19 1018.2 1018.1 0.0
05/11:00am 21.0 17.4 14.2 65 4.0 SSE 26 37 14 20 1018.4 1018.3 0.0
05/10:30am 20.3 16.2 13.7 66 3.8 SSE 28 35 15 19 1018.6 1018.5 0.0
05/10:00am 19.4 15.3 13.8 70 3.2 SSE 28 39 15 21 1018.8 1018.7 0.0
05/09:30am 19.4 15.2 13.6 69 3.3 SE 28 35 15 19 1019.0 1018.9 0.0
05/09:00am 18.5 13.9 13.6 73 2.8 SE 30 37 16 20 1018.9 1018.8 0.0
05/08:30am 17.9 13.3 13.4 75 2.5 SSE 30 37 16 20 1018.7 1018.6 0.0
05/08:00am 16.8 14.0 13.3 80 2.0 SE 20 26 11 14 1018.7 1018.6 0.0
05/07:30am 16.0 13.2 13.1 83 1.6 SE 20 28 11 15 1018.6 1018.5 0.0
05/07:00am 15.5 12.6 12.8 84 1.5 SE 20 28 11 15 1018.4 1018.3 0.0
05/06:30am 15.2 12.4 12.5 84 1.5 SE 19 24 10 13 1018.2 1018.1 0.0
05/06:00am 14.8 12.2 12.1 84 1.5 SE 17 20 9 11 1018.0 1017.9 0.0
05/05:30am 15.2 13.5 12.3 83 1.6 SE 13 19 7 10 1018.1 1018.0 0.0
05/05:00am 16.1 13.3 12.7 80 1.9 ESE 19 24 10 13 1018.1 1018.0 0.0
05/04:30am 16.8 13.2 12.9 78 2.2 SE 24 32 13 17 1018.2 1018.1 0.0
05/04:00am 16.9 12.8 12.6 76 2.4 SE 26 35 14 19 1018.0 1017.9 0.0
05/03:30am 17.2 12.7 13.7 80 2.0 SSE 30 41 16 22 1018.0 1017.9 0.0
05/03:00am 17.1 13.7 13.8 81 1.9 SSE 24 33 13 18 1018.1 1018.0 0.0
05/02:30am 16.6 13.3 14.1 85 1.4 SSE 24 35 13 19 1018.3 1018.2 0.0
05/02:00am 16.7 13.5 14.2 85 1.4 SSE 24 32 13 17 1018.7 1018.6 0.0
05/01:30am 16.8 13.2 14.3 85 1.4 SSE 26 33 14 18 1018.9 1018.8 0.0
05/01:00am 16.9 12.5 14.2 84 1.5 SSE 30 39 16 21 1018.9 1018.8 0.0
05/12:30am 17.0 13.0 14.1 83 1.6 SSE 28 41 15 22 1018.9 1018.8 0.0
05/12:00am 17.1 13.1 14.2 83 1.7 SSE 28 37 15 20 1018.9 1018.8 0.0
 
Date/Time
CDT
Temp
°C
App
Temp
°C
Dew
Point
Rel
Hum
%
Delta-T
°C
Wind Press
QNH
hPa
Press
MSL
hPa
Rain
since 9 am
mm
Dir
 
Spd
km/h
Gust
km/h
Spd
kts
Gust
kts
04/11:30pm 17.3 12.3 14.0 81 1.9 SSE 33 43 18 23 1018.9 1018.8 0.0
04/11:00pm 17.4 12.6 14.1 81 1.9 SSE 32 43 17 23 1019.0 1018.9 0.0
04/10:30pm 17.6 12.2 13.9 79 2.1 SSE 35 46 19 25 1019.0 1018.9 0.0
04/10:00pm 17.8 11.9 13.7 77 2.3 SSE 37 48 20 26 1018.9 1018.8 0.0
04/09:30pm 18.0 12.6 13.9 77 2.3 SSE 35 50 19 27 1018.7 1018.6 0.0
04/09:00pm 18.3 12.8 13.6 74 2.7 SSE 35 48 19 26 1018.6 1018.5 0.0
04/08:30pm 18.5 13.1 14.0 75 2.6 SSE 35 46 19 25 1018.4 1018.3 0.0
04/08:00pm 19.0 12.4 13.6 71 3.1 SSE 41 54 22 29 1018.3 1018.2 0.0
04/07:30pm 19.6 13.1 12.8 65 3.8 S 39 54 21 29 1018.0 1017.9 0.0
04/07:00pm 19.8 12.3 12.6 63 4.0 SSE 44 56 24 30 1017.9 1017.8 0.0
04/06:30pm 20.1 12.6 12.6 62 4.2 S 44 57 24 31 1017.6 1017.5 0.0
04/06:00pm 20.6 13.2 12.6 60 4.5 S 43 57 23 31 1017.8 1017.7 0.0
04/05:30pm 20.7 13.1 12.4 59 4.7 S 44 59 24 32 1017.9 1017.8 0.0
04/05:00pm 21.2 14.1 12.1 56 5.1 S 41 54 22 29 1018.0 1017.9 0.0
04/04:30pm 20.9 13.3 12.3 58 4.8 S 44 54 24 29 1018.4 1018.3 0.0
04/04:00pm 21.8 15.3 11.8 53 5.6 S 37 50 20 27 1018.7 1018.6 0.0
04/03:36pm 21.1 15.2 12.3 57 5.0 S 35 54 19 29 1019.0 1018.9 0.0
04/03:30pm 22.2 16.0 12.7 55 5.4 S 37 52 20 28 1019.1 1019.0 0.0
04/03:00pm 21.1 14.1 11.4 54 5.4 S 39 50 21 27 1019.2 1019.1 0.0
04/02:30pm 21.5 15.6 12.4 56 5.1 S 35 48 19 26 1019.6 1019.5 0.0
04/02:00pm 21.1 14.8 11.2 53 5.5 S 35 44 19 24 1019.9 1019.8 0.0
04/01:30pm 21.2 15.0 11.5 54 5.4 S 35 46 19 25 1020.4 1020.3 0.0
04/01:00pm 20.7 15.0 11.3 55 5.2 S 32 41 17 22 1021.0 1020.9 0.0
04/12:30pm 20.9 15.5 11.0 53 5.4 S 30 44 16 24 1021.2 1021.1 0.0
04/12:00pm 20.3 14.8 10.4 53 5.3 S 30 41 16 22 1021.5 1021.4 0.0
04/11:30am 20.9 15.4 10.7 52 5.6 SSE 30 39 16 21 1021.7 1021.6 0.0
04/11:00am 20.0 14.8 10.4 54 5.2 SSE 28 35 15 19 1021.8 1021.7 0.0
04/10:30am 19.6 14.3 11.1 58 4.6 SSE 30 37 16 20 1021.8 1021.7 0.0
04/10:00am 18.4 13.7 10.5 60 4.2 SE 26 39 14 21 1021.8 1021.7 0.0
04/09:30am 18.2 13.5 10.6 61 4.1 SE 26 33 14 18 1021.7 1021.6 0.0
04/09:00am 17.7 13.8 10.8 64 3.7 SE 22 32 12 17 1021.7 1021.6 0.0
04/08:30am 17.5 13.2 12.0 70 3.0 SE 26 37 14 20 1021.4 1021.3 0.0
04/08:00am 16.7 13.8 12.8 78 2.2 SE 20 30 11 16 1021.3 1021.2 0.0
04/07:30am 15.9 13.7 13.2 84 1.5 SE 17 24 9 13 1020.8 1020.7 0.0
04/07:00am 15.7 13.1 13.2 85 1.4 SE 19 22 10 12 1020.5 1020.4 0.0
04/06:30am 15.1 13.2 13.1 88 1.1 SE 15 20 8 11 1020.1 1020.0 0.0
04/06:00am 15.3 12.4 12.8 85 1.4 SE 20 26 11 14 1019.8 1019.7 0.0
04/05:30am 15.5 12.6 12.8 84 1.5 SE 20 26 11 14 1019.4 1019.3 0.0
04/05:00am 15.6 12.6 12.7 83 1.6 SE 20 28 11 15 1019.1 1019.0 0.0
04/04:30am 15.5 13.1 12.6 83 1.6 SE 17 20 9 11 1019.1 1019.0 0.0
04/04:00am 15.6 13.3 12.9 84 1.5 SE 17 20 9 11 1019.0 1018.9 0.0
04/03:30am 16.1 13.4 13.0 82 1.7 SE 19 22 10 12 1018.9 1018.8 0.0
04/03:00am 16.4 13.6 13.3 82 1.7 SE 20 26 11 14 1018.8 1018.7 0.0
04/02:30am 17.1 13.3 13.6 80 2.0 SE 26 35 14 19 1018.9 1018.8 0.0
04/02:00am 17.3 14.5 14.2 82 1.8 SSE 22 30 12 16 1019.0 1018.9 0.0
04/01:30am 17.4 14.1 14.1 81 1.9 SSE 24 32 13 17 1019.0 1018.9 0.0
04/01:00am 17.5 14.1 13.8 79 2.1 SSE 24 35 13 19 1019.1 1019.0 0.0
04/12:30am 17.7 14.0 14.0 79 2.1 SSE 26 33 14 18 1019.1 1019.0 0.0
04/12:00am 17.8 14.1 13.9 78 2.2 SSE 26 35 14 19 1019.1 1019.0 0.0
 
Date/Time
CDT
Temp
°C
App
Temp
°C
Dew
Point
Rel
Hum
%
Delta-T
°C
Wind Press
QNH
hPa
Press
MSL
hPa
Rain
since 9 am
mm
Dir
 
Spd
km/h
Gust
km/h
Spd
kts
Gust
kts
03/11:30pm 17.9 13.7 13.4 75 2.5 SSE 28 37 15 20 1019.3 1019.2 0.0
03/11:00pm 17.9 14.0 13.4 75 2.5 SSE 26 32 14 17 1019.3 1019.2 0.0
03/10:30pm 18.1 14.2 13.2 73 2.8 SSE 26 35 14 19 1019.2 1019.1 0.0
03/10:00pm 18.3 13.7 13.4 73 2.8 S 30 39 16 21 1019.0 1018.9 0.0
03/09:30pm 18.3 14.4 13.4 73 2.8 S 26 35 14 19 1018.9 1018.8 0.0
03/09:00pm 18.3 14.6 13.8 75 2.6 S 26 33 14 18 1019.0 1018.9 0.0
03/08:30pm 18.7 14.6 13.8 73 2.8 S 28 35 15 19 1018.7 1018.6 0.0
03/08:00pm 19.5 15.8 13.9 70 3.2 S 26 35 14 19 1018.5 1018.4 0.0

Other Formats:

Comma delimited format used in spreadsheet applications
http://www.bom.gov.au/fwo/IDS60801/IDS60801.94653.axf

JavaScript Object Notation format (JSON) in row-major order
http://www.bom.gov.au/fwo/IDS60801/IDS60801.94653.json